This is the latest recevied weather packets stored in our database for station/object W7SA-12. If no packets are shown the sender has not sent any weather packets the latest 1 day(s).
| Time | Temp. | Humidity | Pressure | Rain* | Wind** | Luminosity | Snow |
|---|---|---|---|---|---|---|---|
| 1778082248 | 18.33° C | 46% | 1015.1 hPa | 0 mm | - | - | - |
| 1778081882 | 18.89° C | 46% | 1015.1 hPa | 0 mm | - | - | - |
| 1778081441 | 17.78° C | 49% | 1015.1 hPa | 0 mm | - | - | - |
| 1778080470 | 17.78° C | 53% | 1015.2 hPa | 0 mm | - | - | - |
| 1778079966 | 16.11° C | 55% | 1015.1 hPa | 0 mm | - | - | - |
| 1778079698 | 15.56° C | 56% | 1015.1 hPa | 0 mm | - | - | - |
| 1778078279 | 15.56° C | 59% | 1015.1 hPa | 0 mm | - | - | - |
| 1778075670 | 12.78° C | 66% | 1015 hPa | 0 mm | - | - | - |
| 1778075375 | 12.78° C | 67% | 1015 hPa | 0 mm | - | - | - |
| 1778075076 | 12.78° C | 68% | 1015 hPa | 0 mm | - | - | - |
| 1778074748 | 12.22° C | 70% | 1015 hPa | 0 mm | - | - | - |
| 1778073844 | 11.67° C | 73% | 1015 hPa | 0 mm | - | - | - |
| 1778073252 | 10.56° C | 75% | 1015 hPa | 0 mm | - | - | - |
| 1778072963 | 10° C | 76% | 1015 hPa | 0 mm | - | - | - |
| 1778072879 | 10° C | 76% | 1015 hPa | 0 mm | - | - | - |
| 1778072678 | 10° C | 77% | 1015 hPa | 0 mm | - | - | - |
| 1778072375 | 9.44° C | 77% | 1015 hPa | 0 mm | - | - | - |
| 1778071788 | 8.89° C | 76% | 1015 hPa | 0 mm | - | - | - |
| 1778071379 | 8.89° C | 76% | 1015 hPa | 0 mm | - | - | - |
| 1778069974 | 9.44° C | 74% | 1015 hPa | 0 mm | - | - | - |
| 1778069486 | 9.44° C | 74% | 1015 hPa | 0 mm | - | - | - |
| 1778069174 | 9.44° C | 74% | 1015 hPa | 0 mm | - | - | - |
| 1778068980 | 9.44° C | 74% | 1015 hPa | 0 mm | - | - | - |
| 1778068768 | 10° C | 74% | 1015 hPa | 0 mm | - | - | - |
| 1778068380 | 10° C | 74% | 1015 hPa | 0 mm | - | - | - |
* Rain latest hour (hover to see other rain measurements)
** Current wind speed in m/s (hover to see current wind gust speed)